createdAt,value
2023-04-23T00:01:22.332Z,4.63
2023-04-23T00:03:50.763Z,4.80
2023-04-23T00:06:22.446Z,4.70
2023-04-23T00:08:55.715Z,4.60
2023-04-23T00:11:27.483Z,5.00
2023-04-23T00:13:57.073Z,4.77
2023-04-23T00:16:24.905Z,4.83
2023-04-23T00:18:51.773Z,4.37
2023-04-23T00:21:18.745Z,4.53
2023-04-23T00:23:47.913Z,10.47
2023-04-23T00:26:14.797Z,6.10
2023-04-23T00:28:44.192Z,6.07
2023-04-23T00:31:13.188Z,5.03
2023-04-23T00:33:40.131Z,4.67
2023-04-23T00:36:07.587Z,4.97
2023-04-23T00:38:34.447Z,8.57
2023-04-23T00:41:01.371Z,4.27
2023-04-23T00:43:28.602Z,5.80
2023-04-23T00:45:56.052Z,5.70
2023-04-23T00:48:22.949Z,4.60
2023-04-23T00:50:52.162Z,4.80
2023-04-23T00:53:19.002Z,4.70
2023-04-23T00:55:46.369Z,5.70
2023-04-23T00:58:15.688Z,5.77
2023-04-23T01:00:47.030Z,6.83
2023-04-23T01:03:14.269Z,4.93
2023-04-23T01:05:46.309Z,5.60
2023-04-23T01:08:19.911Z,5.40
2023-04-23T01:10:48.052Z,5.90
2023-04-23T01:13:17.511Z,5.30
2023-04-23T01:15:45.485Z,6.30
2023-04-23T01:18:13.247Z,5.90
2023-04-23T01:20:43.195Z,6.70
2023-04-23T01:23:10.078Z,6.70
2023-04-23T01:25:36.938Z,6.60
2023-04-23T01:28:09.437Z,7.30
2023-04-23T01:30:37.535Z,7.40
2023-04-23T01:33:06.490Z,8.30
2023-04-23T01:35:36.292Z,7.97
2023-04-23T01:38:04.327Z,7.57
2023-04-23T01:40:31.319Z,8.30
2023-04-23T01:43:01.672Z,7.97
2023-04-23T01:45:30.928Z,7.53
2023-04-23T01:48:01.401Z,7.53
2023-04-23T01:50:31.915Z,7.00
2023-04-23T01:52:58.813Z,6.87
2023-04-23T01:55:25.881Z,7.20
2023-04-23T01:57:52.710Z,7.37
2023-04-23T02:00:20.778Z,7.10
2023-04-23T02:02:52.492Z,8.80
2023-04-23T02:05:21.326Z,8.63
2023-04-23T02:07:50.845Z,8.33
2023-04-23T02:10:18.762Z,10.07
2023-04-23T02:12:47.247Z,8.10
2023-04-23T02:15:17.314Z,9.23
2023-04-23T02:17:44.464Z,10.70
2023-04-23T02:20:14.198Z,9.70
2023-04-23T02:22:42.437Z,10.27
2023-04-23T02:25:16.923Z,10.50
2023-04-23T02:27:44.829Z,9.90
2023-04-23T02:30:14.947Z,9.67
2023-04-23T02:32:43.211Z,13.43
2023-04-23T02:35:10.626Z,10.10
2023-04-23T02:37:38.058Z,9.93
2023-04-23T02:40:08.227Z,9.70
2023-04-23T02:42:35.414Z,9.17
2023-04-23T02:45:04.574Z,10.23
2023-04-23T02:47:33.854Z,10.33
2023-04-23T02:50:05.815Z,9.80
2023-04-23T02:52:33.903Z,9.90
2023-04-23T02:55:02.158Z,9.50
2023-04-23T02:57:29.078Z,12.43
2023-04-23T02:59:58.519Z,11.40
2023-04-23T03:02:25.563Z,10.40
2023-04-23T03:04:52.561Z,11.70
2023-04-23T03:07:19.479Z,11.10
2023-04-23T03:09:46.493Z,9.77
2023-04-23T03:12:16.687Z,11.40
2023-04-23T03:14:46.084Z,11.33
2023-04-23T03:17:15.597Z,13.87
2023-04-23T03:19:42.656Z,12.40
2023-04-23T03:22:13.139Z,11.03
2023-04-23T03:24:40.324Z,13.60
2023-04-23T03:27:07.447Z,12.17
2023-04-23T03:29:36.939Z,14.40
2023-04-23T03:32:06.920Z,14.80
2023-04-23T03:34:33.773Z,20.07
2023-04-23T03:37:02.760Z,22.57
2023-04-23T03:39:29.604Z,26.37
2023-04-23T03:41:58.093Z,21.53
2023-04-23T03:44:24.996Z,23.00
2023-04-23T03:46:52.373Z,25.60
2023-04-23T03:49:19.204Z,28.00
2023-04-23T03:51:46.337Z,25.07
2023-04-23T03:54:13.218Z,27.00
2023-04-23T03:56:40.232Z,24.70
2023-04-23T03:59:09.676Z,29.80
2023-04-23T04:01:36.987Z,28.77
2023-04-23T04:04:07.239Z,26.00
2023-04-23T04:06:36.852Z,28.67
2023-04-23T04:09:03.889Z,30.13
2023-04-23T04:11:36.633Z,28.60
2023-04-23T04:14:03.622Z,26.20
2023-04-23T04:16:30.619Z,29.20
2023-04-23T04:18:57.528Z,27.33
2023-04-23T04:21:24.483Z,32.20
2023-04-23T04:23:51.301Z,28.87
2023-04-23T04:26:18.719Z,29.93
2023-04-23T04:28:45.639Z,30.30
2023-04-23T04:31:15.852Z,33.53
2023-04-23T04:33:43.336Z,28.60
2023-04-23T04:36:10.327Z,30.87
2023-04-23T04:38:37.889Z,30.50
2023-04-23T04:41:07.625Z,32.73
2023-04-23T04:43:34.764Z,30.17
2023-04-23T04:46:01.851Z,32.80
2023-04-23T04:48:28.795Z,28.43
2023-04-23T04:50:55.704Z,35.30
2023-04-23T04:53:25.001Z,32.23
2023-04-23T04:55:53.974Z,37.93
2023-04-23T04:58:20.844Z,35.03
2023-04-23T05:00:53.387Z,33.07
2023-04-23T05:03:20.991Z,36.07
2023-04-23T05:05:48.668Z,35.27
2023-04-23T05:08:17.014Z,39.13
2023-04-23T05:10:46.628Z,37.67
2023-04-23T05:13:13.674Z,37.70
2023-04-23T05:15:42.817Z,34.70
2023-04-23T05:18:10.901Z,41.97
2023-04-23T05:20:41.211Z,35.27
2023-04-23T05:23:10.276Z,34.73
2023-04-23T05:25:37.202Z,40.23
2023-04-23T05:28:04.300Z,38.50
2023-04-23T05:30:33.807Z,31.63
2023-04-23T05:33:00.763Z,34.27
2023-04-23T05:35:31.854Z,32.37
2023-04-23T05:37:58.861Z,34.60
2023-04-23T05:40:28.783Z,30.67
2023-04-23T05:43:00.495Z,32.93
2023-04-23T05:45:27.991Z,34.97
2023-04-23T05:47:57.339Z,34.73
2023-04-23T05:50:24.360Z,30.13
2023-04-23T05:52:51.206Z,36.63
2023-04-23T05:55:20.876Z,32.50
2023-04-23T05:57:50.898Z,34.73
2023-04-23T06:00:17.982Z,31.93
2023-04-23T06:02:49.626Z,32.50
2023-04-23T06:05:16.849Z,24.90
2023-04-23T06:07:43.906Z,28.60
2023-04-23T06:10:11.559Z,28.33
2023-04-23T06:12:39.284Z,23.57
2023-04-23T06:15:29.445Z,29.40
2023-04-23T06:17:56.723Z,24.53
2023-04-23T06:20:23.618Z,31.30
2023-04-23T06:22:55.427Z,24.60
2023-04-23T06:25:23.085Z,20.43
2023-04-23T06:27:52.176Z,24.03
2023-04-23T06:30:19.144Z,21.03
2023-04-23T06:32:46.413Z,22.73
2023-04-23T06:35:15.846Z,25.77
2023-04-23T06:37:45.873Z,17.80
2023-04-23T06:40:16.186Z,22.13
2023-04-23T06:42:43.277Z,21.63
2023-04-23T06:45:13.263Z,35.00
2023-04-23T06:47:41.798Z,17.57
2023-04-23T06:50:09.078Z,20.77
2023-04-23T06:52:38.835Z,21.37
2023-04-23T06:55:06.762Z,14.67
2023-04-23T06:57:36.110Z,11.50
2023-04-23T07:00:03.422Z,13.20
2023-04-23T07:02:30.404Z,9.90
2023-04-23T07:04:57.337Z,9.23
2023-04-23T07:07:25.493Z,13.30
2023-04-23T07:09:52.958Z,9.00
2023-04-23T07:12:22.469Z,8.43
2023-04-23T07:14:54.928Z,8.80
2023-04-23T07:17:23.246Z,15.67
2023-04-23T07:19:53.704Z,9.30
2023-04-23T07:22:20.673Z,8.40
2023-04-23T07:24:52.151Z,19.17
2023-04-23T07:27:19.618Z,10.40
2023-04-23T07:29:46.669Z,11.20
2023-04-23T07:32:13.660Z,10.60
2023-04-23T07:34:40.735Z,11.30
2023-04-23T07:37:13.307Z,8.60
2023-04-23T07:39:43.941Z,9.80
2023-04-23T07:42:11.272Z,15.43
2023-04-23T07:44:38.445Z,12.97
2023-04-23T07:47:05.490Z,14.20
2023-04-23T07:49:32.352Z,8.60
2023-04-23T07:51:59.319Z,9.17
2023-04-23T07:54:28.921Z,7.67
2023-04-23T07:56:58.316Z,7.97
2023-04-23T07:59:25.175Z,8.70
2023-04-23T08:01:54.375Z,9.13
2023-04-23T08:04:21.580Z,12.83
2023-04-23T08:06:48.778Z,8.23
2023-04-23T08:09:17.874Z,12.50
2023-04-23T08:11:44.976Z,8.80
2023-04-23T08:14:11.925Z,11.23
2023-04-23T08:16:39.187Z,11.10
2023-04-23T08:19:06.748Z,15.90
2023-04-23T08:21:34.331Z,12.80
2023-04-23T08:24:02.929Z,13.13
2023-04-23T08:26:30.661Z,15.33
2023-04-23T08:28:57.872Z,14.53
2023-04-23T08:31:27.573Z,12.97
2023-04-23T08:33:55.553Z,19.20
2023-04-23T08:36:26.148Z,12.90
2023-04-23T08:38:53.230Z,18.83
2023-04-23T08:41:24.601Z,18.10
2023-04-23T08:44:17.838Z,14.23
2023-04-23T08:46:45.694Z,14.80
2023-04-23T08:49:16.611Z,13.03
2023-04-23T08:52:30.724Z,14.27
2023-04-23T08:55:05.019Z,13.27
2023-04-23T08:57:34.132Z,13.83
2023-04-23T09:00:06.127Z,19.63
2023-04-23T09:02:37.171Z,13.43
2023-04-23T09:05:05.402Z,11.27
2023-04-23T09:07:36.086Z,13.47
2023-04-23T09:10:07.030Z,12.17
2023-04-23T09:12:36.957Z,11.00
2023-04-23T09:15:10.694Z,17.43
2023-04-23T09:17:46.477Z,11.97
2023-04-23T09:20:15.097Z,12.63
2023-04-23T09:22:47.107Z,13.00
2023-04-23T09:25:18.448Z,22.43
2023-04-23T09:27:46.932Z,13.43
2023-04-23T09:30:15.357Z,11.60
2023-04-23T09:32:45.998Z,10.83
2023-04-23T09:35:20.710Z,13.07
2023-04-23T09:37:52.507Z,12.57
2023-04-23T09:40:23.723Z,11.77
2023-04-23T09:42:55.693Z,12.13
2023-04-23T09:45:25.683Z,12.27
2023-04-23T09:47:59.132Z,10.50
2023-04-23T09:50:36.683Z,10.80
2023-04-23T09:53:04.985Z,10.50
2023-04-23T09:55:38.845Z,10.97
2023-04-23T09:58:13.565Z,14.17
2023-04-23T10:00:43.459Z,12.53
2023-04-23T10:03:11.191Z,11.63
2023-04-23T10:08:14.727Z,10.73
2023-04-23T10:10:59.612Z,10.07
2023-04-23T10:13:31.598Z,9.83
2023-04-23T10:16:13.912Z,12.70
2023-04-23T10:18:48.571Z,11.73
2023-04-23T10:21:20.096Z,11.90
2023-04-23T10:23:50.302Z,11.57
2023-04-23T10:26:20.342Z,12.67
2023-04-23T10:28:49.234Z,13.10
2023-04-23T10:31:17.955Z,12.80
2023-04-23T10:33:56.108Z,11.03
2023-04-23T10:36:27.799Z,11.20
2023-04-23T10:38:59.126Z,11.60
2023-04-23T10:41:36.582Z,12.37
2023-04-23T10:44:05.857Z,9.57
2023-04-23T10:46:34.815Z,12.23
2023-04-23T10:49:24.649Z,9.70
2023-04-23T10:52:21.066Z,11.00
2023-04-23T10:54:57.351Z,10.30
2023-04-23T10:57:24.309Z,8.97
2023-04-23T10:59:58.948Z,9.73
2023-04-23T11:02:46.625Z,9.37
2023-04-23T11:05:13.738Z,8.30
2023-04-23T11:07:43.718Z,7.00
2023-04-23T11:10:15.369Z,6.60
2023-04-23T11:12:44.930Z,5.97
2023-04-23T11:15:15.277Z,6.13
2023-04-23T11:17:47.195Z,5.20
2023-04-23T11:20:24.196Z,5.70
2023-04-23T11:22:53.099Z,7.03
2023-04-23T11:25:26.828Z,6.77
2023-04-23T11:28:00.519Z,4.63
2023-04-23T11:30:29.694Z,5.20
2023-04-23T11:33:00.050Z,6.07
2023-04-23T11:35:29.413Z,4.37
2023-04-23T11:37:58.947Z,4.30
2023-04-23T11:40:25.982Z,5.93
2023-04-23T11:42:57.587Z,6.27
2023-04-23T11:45:30.582Z,5.70
2023-04-23T11:48:00.756Z,4.73
2023-04-23T11:50:33.496Z,8.60
2023-04-23T11:53:11.546Z,4.97
2023-04-23T11:55:44.124Z,5.40
2023-04-23T11:58:11.568Z,5.87
2023-04-23T12:00:43.243Z,5.23
2023-04-23T12:03:10.356Z,5.17
2023-04-23T12:05:42.409Z,4.20
2023-04-23T12:08:16.151Z,4.30
2023-04-23T12:10:52.726Z,5.43
2023-04-23T12:13:26.534Z,6.70
2023-04-23T12:16:01.752Z,4.93
2023-04-23T12:18:35.786Z,5.60
2023-04-23T12:21:07.220Z,4.90
2023-04-23T12:23:38.205Z,4.60
2023-04-23T12:26:15.953Z,4.70
2023-04-23T12:29:00.153Z,3.87
2023-04-23T12:31:28.988Z,5.33
2023-04-23T12:34:04.611Z,3.97
2023-04-23T12:36:38.498Z,4.07
2023-04-23T12:39:33.807Z,4.40
2023-04-23T12:42:08.092Z,4.43
2023-04-23T12:44:37.870Z,4.20
2023-04-23T12:47:11.928Z,3.20
2023-04-23T12:49:44.350Z,3.10
2023-04-23T12:52:14.220Z,3.17
2023-04-23T12:54:44.876Z,3.00
2023-04-23T12:57:14.207Z,3.00
2023-04-23T12:59:41.428Z,7.93
2023-04-23T13:02:09.755Z,5.80
2023-04-23T13:04:37.008Z,3.43
2023-04-23T13:07:05.382Z,3.87
2023-04-23T13:09:37.114Z,3.10
2023-04-23T13:12:04.167Z,2.80
2023-04-23T13:14:33.228Z,3.23
2023-04-23T13:17:00.182Z,2.67
2023-04-23T13:19:30.264Z,6.63
2023-04-23T13:22:01.615Z,3.67
2023-04-23T13:24:31.493Z,3.83
2023-04-23T13:26:58.410Z,13.77
2023-04-23T13:29:28.621Z,2.90
2023-04-23T13:31:57.199Z,3.70
2023-04-23T13:34:24.357Z,7.83
2023-04-23T13:36:51.278Z,7.47
2023-04-23T13:39:21.415Z,3.47
2023-04-23T13:41:59.152Z,3.10
2023-04-23T13:44:36.027Z,12.73
2023-04-23T13:47:03.348Z,5.00
2023-04-23T13:49:30.219Z,3.33
2023-04-23T13:52:04.188Z,3.00
2023-04-23T13:54:31.465Z,3.27
2023-04-23T13:56:58.884Z,3.73
2023-04-23T13:59:26.275Z,3.10
2023-04-23T14:01:53.170Z,9.37
2023-04-23T14:04:24.681Z,4.50
2023-04-23T14:06:54.266Z,3.03
2023-04-23T14:09:22.701Z,3.07
2023-04-23T14:11:52.256Z,3.80
2023-04-23T14:14:19.215Z,2.83
2023-04-23T14:16:48.348Z,2.57
2023-04-23T14:19:15.830Z,3.27
2023-04-23T14:21:42.929Z,2.73
2023-04-23T14:24:26.723Z,3.00
2023-04-23T14:26:56.877Z,3.30
2023-04-23T14:30:05.538Z,3.20
2023-04-23T14:32:34.765Z,4.37
2023-04-23T14:35:03.205Z,3.43
2023-04-23T14:37:34.393Z,3.03
2023-04-23T14:40:01.245Z,4.10
2023-04-23T14:42:30.174Z,5.83
2023-04-23T14:45:02.166Z,2.63
2023-04-23T14:47:29.047Z,2.67
2023-04-23T14:50:01.041Z,3.37
2023-04-23T14:52:28.000Z,3.53
2023-04-23T14:54:55.920Z,4.43
2023-04-23T14:57:23.099Z,21.27
2023-04-23T14:59:52.152Z,3.10
2023-04-23T15:02:19.078Z,2.80
2023-04-23T15:04:46.311Z,3.20
2023-04-23T15:07:16.321Z,3.20
2023-04-23T15:09:43.395Z,4.80
2023-04-23T15:12:53.360Z,6.73
2023-04-23T15:15:37.049Z,3.47
2023-04-23T15:18:11.985Z,3.57
2023-04-23T15:20:46.662Z,3.63
2023-04-23T15:23:13.700Z,4.00
2023-04-23T15:25:43.575Z,3.57
2023-04-23T15:28:10.548Z,3.90
2023-04-23T15:30:37.433Z,3.60
2023-04-23T15:33:04.469Z,3.37
2023-04-23T15:35:31.470Z,3.80
2023-04-23T15:37:58.407Z,14.00
2023-04-23T15:40:29.337Z,3.03
2023-04-23T15:42:59.232Z,3.27
2023-04-23T15:45:28.241Z,3.50
2023-04-23T15:47:55.245Z,3.33
2023-04-23T15:50:26.723Z,4.00
2023-04-23T15:52:58.875Z,3.13
2023-04-23T15:55:29.432Z,3.63
2023-04-23T15:58:01.516Z,3.23
2023-04-23T16:00:33.993Z,3.03
2023-04-23T16:03:01.501Z,3.63
2023-04-23T16:05:29.881Z,2.67
2023-04-23T16:07:59.022Z,6.10
2023-04-23T16:10:26.605Z,2.40
2023-04-23T16:12:55.708Z,3.83
2023-04-23T16:15:22.762Z,5.43
2023-04-23T16:17:50.117Z,6.13
2023-04-23T16:20:19.754Z,6.77
2023-04-23T16:22:48.814Z,6.03
2023-04-23T16:25:17.885Z,5.77
2023-04-23T16:27:45.087Z,8.13
2023-04-23T16:30:17.025Z,5.30
2023-04-23T16:32:44.034Z,5.03
2023-04-23T16:35:11.386Z,6.00
2023-04-23T16:37:38.327Z,5.13
2023-04-23T16:40:06.225Z,4.67
2023-04-23T16:42:33.308Z,5.67
2023-04-23T16:45:01.490Z,7.00
2023-04-23T16:47:28.495Z,4.73
2023-04-23T16:49:55.488Z,13.43
2023-04-23T16:52:23.224Z,4.27
2023-04-23T16:54:52.561Z,5.60
2023-04-23T16:57:19.582Z,5.60
2023-04-23T16:59:46.806Z,4.73
2023-04-23T17:02:13.837Z,7.20
2023-04-23T17:04:41.020Z,5.73
2023-04-23T17:07:12.560Z,4.80
2023-04-23T17:09:39.485Z,4.70
2023-04-23T17:12:06.460Z,6.53
2023-04-23T17:14:33.423Z,8.23
2023-04-23T17:17:00.424Z,4.30
2023-04-23T17:19:27.478Z,5.53
2023-04-23T17:21:57.459Z,4.83
2023-04-23T17:24:32.050Z,5.57
2023-04-23T17:26:59.089Z,5.27
2023-04-23T17:29:26.239Z,5.67
2023-04-23T17:31:53.313Z,6.50
2023-04-23T17:34:21.452Z,5.50
2023-04-23T17:36:48.502Z,6.07
2023-04-23T17:39:19.847Z,5.93
2023-04-23T17:41:49.858Z,6.20
2023-04-23T17:44:19.195Z,6.40
2023-04-23T17:46:48.971Z,6.80
2023-04-23T17:49:18.214Z,7.47
2023-04-23T17:51:45.355Z,6.80
2023-04-23T17:54:12.206Z,8.03
2023-04-23T17:56:39.639Z,8.10
2023-04-23T17:59:06.668Z,9.33
2023-04-23T18:01:36.642Z,8.03
2023-04-23T18:04:06.576Z,7.50
2023-04-23T18:06:36.855Z,7.87
2023-04-23T18:09:03.750Z,8.37
2023-04-23T18:11:30.853Z,8.83
2023-04-23T18:13:57.878Z,7.63
2023-04-23T18:16:24.773Z,7.77
2023-04-23T18:18:54.114Z,8.57
2023-04-23T18:21:23.857Z,10.50
2023-04-23T18:23:50.879Z,7.53
2023-04-23T18:26:17.742Z,15.00
2023-04-23T18:28:44.559Z,8.90
2023-04-23T18:31:12.049Z,8.87
2023-04-23T18:34:02.203Z,9.20
2023-04-23T18:36:37.576Z,7.70
2023-04-23T18:39:07.377Z,16.93
2023-04-23T18:41:36.792Z,7.70
2023-04-23T18:44:03.730Z,7.63
2023-04-23T18:46:33.330Z,8.20
2023-04-23T18:49:37.086Z,8.90
2023-04-23T18:52:04.311Z,9.30
2023-04-23T18:54:34.351Z,8.27
2023-04-23T18:57:02.195Z,8.47
2023-04-23T18:59:29.230Z,7.87
2023-04-23T19:01:58.915Z,8.13
2023-04-23T19:04:26.485Z,10.17
2023-04-23T19:06:53.633Z,10.33
2023-04-23T19:09:20.958Z,9.17
2023-04-23T19:11:48.043Z,10.67
2023-04-23T19:14:19.094Z,10.03
2023-04-23T19:16:47.399Z,9.97
2023-04-23T19:19:14.510Z,10.60
2023-04-23T19:21:41.472Z,10.73
2023-04-23T19:24:08.450Z,9.83
2023-04-23T19:26:35.371Z,12.07
2023-04-23T19:29:02.607Z,12.93
2023-04-23T19:31:30.917Z,22.60
2023-04-23T19:33:58.119Z,13.33
2023-04-23T19:36:28.032Z,20.70
2023-04-23T19:38:54.994Z,11.60
2023-04-23T19:41:22.363Z,12.33
2023-04-23T19:43:51.388Z,11.60
2023-04-23T19:46:18.463Z,10.37
2023-04-23T19:48:47.601Z,12.40
2023-04-23T19:51:14.594Z,15.30
2023-04-23T19:53:44.126Z,14.93
2023-04-23T19:56:13.381Z,17.37
2023-04-23T19:58:40.591Z,17.90
2023-04-23T20:01:08.063Z,13.73
2023-04-23T20:03:35.796Z,13.47
2023-04-23T20:06:07.596Z,12.63
2023-04-23T20:08:42.194Z,16.53
2023-04-23T20:11:10.565Z,11.67
2023-04-23T20:13:39.809Z,9.30
2023-04-23T20:16:08.275Z,10.07
2023-04-23T20:18:35.881Z,10.97
2023-04-23T20:21:03.039Z,8.47
2023-04-23T20:23:29.919Z,17.63
2023-04-23T20:25:57.064Z,14.60
2023-04-23T20:28:26.290Z,7.83
2023-04-23T20:30:55.993Z,10.20
2023-04-23T20:33:22.832Z,8.40
2023-04-23T20:35:50.457Z,7.37
2023-04-23T20:38:19.261Z,6.67
2023-04-23T20:40:47.049Z,7.03
2023-04-23T20:43:14.445Z,7.13
2023-04-23T20:45:43.035Z,8.97
2023-04-23T20:48:10.050Z,7.63
2023-04-23T20:50:37.331Z,6.77
2023-04-23T20:53:04.279Z,7.80
2023-04-23T20:55:31.357Z,8.80
2023-04-23T20:58:01.300Z,7.13
2023-04-23T21:00:31.046Z,12.40
2023-04-23T21:02:58.449Z,8.47
2023-04-23T21:05:27.957Z,6.77
2023-04-23T21:07:54.976Z,9.93
2023-04-23T21:10:21.911Z,14.17
2023-04-23T21:12:49.296Z,5.73
2023-04-23T21:15:17.414Z,6.50
2023-04-23T21:17:44.721Z,6.03
2023-04-23T21:20:14.703Z,5.50
2023-04-23T21:22:41.607Z,5.83
2023-04-23T21:25:11.171Z,5.93
2023-04-23T21:27:45.434Z,5.80
2023-04-23T21:30:49.452Z,5.60
2023-04-23T21:33:18.221Z,6.03
2023-04-23T21:35:46.294Z,9.77
2023-04-23T21:38:13.416Z,6.00
2023-04-23T21:40:40.994Z,4.83
2023-04-23T21:43:10.562Z,5.80
2023-04-23T21:45:37.901Z,5.60
2023-04-23T21:48:06.161Z,6.20
2023-04-23T21:50:34.082Z,4.70
2023-04-23T21:53:03.095Z,5.60
2023-04-23T21:55:34.034Z,4.93
2023-04-23T22:00:32.088Z,4.70
2023-04-23T22:02:59.159Z,5.13
2023-04-23T22:05:29.866Z,5.20
2023-04-23T22:07:56.891Z,4.70
2023-04-23T22:10:26.504Z,4.80
2023-04-23T22:12:53.434Z,7.97
2023-04-23T22:15:20.616Z,4.17
2023-04-23T22:17:50.416Z,5.37
2023-04-23T22:20:19.142Z,4.53
2023-04-23T22:22:46.338Z,4.50
2023-04-23T22:25:13.625Z,11.63
2023-04-23T22:27:41.831Z,10.20
2023-04-23T22:30:11.144Z,4.50
2023-04-23T22:32:40.918Z,4.83
2023-04-23T22:35:09.303Z,10.13
2023-04-23T22:37:36.711Z,4.37
2023-04-23T22:40:08.005Z,4.93
2023-04-23T22:42:37.886Z,6.90
2023-04-23T22:45:10.290Z,4.23
2023-04-23T22:47:39.770Z,4.53
2023-04-23T22:50:12.510Z,4.10
2023-04-23T22:52:42.176Z,4.23
2023-04-23T22:55:14.565Z,4.37
2023-04-23T22:57:46.482Z,4.80
2023-04-23T23:00:16.446Z,4.83
2023-04-23T23:02:43.409Z,4.73
2023-04-23T23:05:14.916Z,5.47
2023-04-23T23:07:49.020Z,5.43
2023-04-23T23:10:15.957Z,5.23
2023-04-23T23:12:42.926Z,7.13
2023-04-23T23:15:10.365Z,7.97
2023-04-23T23:17:37.297Z,5.70
2023-04-23T23:20:08.769Z,5.93
2023-04-23T23:22:38.716Z,5.73
2023-04-23T23:25:08.565Z,5.03
2023-04-23T23:27:35.668Z,4.57
2023-04-23T23:30:06.128Z,5.70
2023-04-23T23:32:33.760Z,5.20
2023-04-23T23:35:00.815Z,4.67
2023-04-23T23:37:27.889Z,5.13
2023-04-23T23:39:57.257Z,5.50
2023-04-23T23:42:24.123Z,5.47
2023-04-23T23:44:51.050Z,5.67
2023-04-23T23:47:18.146Z,5.17
2023-04-23T23:49:45.158Z,5.23
2023-04-23T23:52:12.344Z,5.30
2023-04-23T23:54:41.368Z,5.87
2023-04-23T23:57:08.358Z,5.27
2023-04-23T23:59:35.296Z,5.20
